createdAt,value
2022-08-14T00:00:47.553Z,2.03
2022-08-14T00:03:33.010Z,2.00
2022-08-14T00:06:25.825Z,1.90
2022-08-14T00:09:14.452Z,1.83
2022-08-14T00:12:05.520Z,2.08
2022-08-14T00:15:23.584Z,1.92
2022-08-14T00:18:10.828Z,1.90
2022-08-14T00:21:00.809Z,2.15
2022-08-14T00:23:53.968Z,1.80
2022-08-14T00:26:39.153Z,1.95
2022-08-14T00:29:27.152Z,1.80
2022-08-14T00:32:52.057Z,1.90
2022-08-14T00:35:18.751Z,1.65
2022-08-14T00:38:04.662Z,2.22
2022-08-14T00:40:53.562Z,1.70
2022-08-14T00:43:43.086Z,2.20
2022-08-14T00:46:32.611Z,1.88
2022-08-14T00:49:21.194Z,2.10
2022-08-14T00:52:07.043Z,2.08
2022-08-14T00:54:58.045Z,1.90
2022-08-14T00:57:43.539Z,1.80
2022-08-14T01:00:37.391Z,1.77
2022-08-14T01:03:30.740Z,1.70
2022-08-14T01:06:18.493Z,2.03
2022-08-14T01:09:04.736Z,2.10
2022-08-14T01:11:57.144Z,2.30
2022-08-14T01:14:55.125Z,2.10
2022-08-14T01:18:02.137Z,2.05
2022-08-14T01:21:06.288Z,1.83
2022-08-14T01:23:53.950Z,2.33
2022-08-14T01:26:39.277Z,2.30
2022-08-14T01:29:48.658Z,2.22
2022-08-14T01:32:37.599Z,2.33
2022-08-14T01:36:03.487Z,2.33
2022-08-14T01:38:37.250Z,2.40
2022-08-14T01:41:30.057Z,2.50
2022-08-14T01:44:32.319Z,2.30
2022-08-14T01:47:22.194Z,2.00
2022-08-14T01:50:08.971Z,2.13
2022-08-14T01:52:59.693Z,1.92
2022-08-14T01:55:45.101Z,2.08
2022-08-14T01:58:30.737Z,2.33
2022-08-14T02:01:18.115Z,1.83
2022-08-14T02:04:05.722Z,2.42
2022-08-14T02:07:15.565Z,2.22
2022-08-14T02:10:00.972Z,2.40
2022-08-14T02:12:53.982Z,2.20
2022-08-14T02:15:43.600Z,2.20
2022-08-14T02:18:31.999Z,2.42
2022-08-14T02:21:19.519Z,2.27
2022-08-14T02:24:38.328Z,2.40
2022-08-14T02:28:24.969Z,2.40
2022-08-14T02:30:19.222Z,2.30
2022-08-14T02:33:05.588Z,2.28
2022-08-14T02:35:53.499Z,2.38
2022-08-14T02:38:43.291Z,2.40
2022-08-14T02:41:30.343Z,2.45
2022-08-14T02:44:29.773Z,2.40
2022-08-14T02:47:19.310Z,2.58
2022-08-14T02:50:06.198Z,2.65
2022-08-14T02:53:13.231Z,2.35
2022-08-14T02:56:03.264Z,2.25
2022-08-14T02:59:02.129Z,2.42
2022-08-14T03:01:54.759Z,2.53
2022-08-14T03:04:40.222Z,2.05
2022-08-14T03:07:25.903Z,2.22
2022-08-14T03:10:26.968Z,2.15
2022-08-14T03:13:21.525Z,2.10
2022-08-14T03:16:19.755Z,2.38
2022-08-14T03:19:07.252Z,2.58
2022-08-14T03:21:53.712Z,2.25
2022-08-14T03:24:39.341Z,2.33
2022-08-14T03:27:35.433Z,2.40
2022-08-14T03:30:39.936Z,2.47
2022-08-14T03:33:27.752Z,2.75
2022-08-14T03:37:51.074Z,2.58
2022-08-14T03:39:24.184Z,2.42
2022-08-14T03:42:19.263Z,2.60
2022-08-14T03:45:26.418Z,2.20
2022-08-14T03:48:27.487Z,2.38
2022-08-14T03:51:16.832Z,2.40
2022-08-14T03:54:08.042Z,2.50
2022-08-14T03:57:02.407Z,2.50
2022-08-14T03:59:48.387Z,2.65
2022-08-14T04:02:37.679Z,2.90
2022-08-14T04:05:42.862Z,3.08
2022-08-14T04:08:31.803Z,2.80
2022-08-14T04:11:17.505Z,2.78
2022-08-14T04:14:05.403Z,2.40
2022-08-14T04:16:52.470Z,2.50
2022-08-14T04:19:38.929Z,2.50
2022-08-14T04:22:25.160Z,2.70
2022-08-14T04:25:10.581Z,2.70
2022-08-14T04:28:02.091Z,2.45
2022-08-14T04:30:48.813Z,2.88
2022-08-14T04:33:35.503Z,2.58
2022-08-14T04:36:21.752Z,2.70
2022-08-14T04:39:27.658Z,2.83
2022-08-14T04:42:32.347Z,2.50
2022-08-14T04:45:17.538Z,2.75
2022-08-14T04:48:39.504Z,2.97
2022-08-14T04:51:27.517Z,2.92
2022-08-14T04:54:12.229Z,2.92
2022-08-14T04:56:58.573Z,2.58
2022-08-14T04:59:43.844Z,2.60
2022-08-14T05:02:28.961Z,2.85
2022-08-14T05:05:14.622Z,2.75
2022-08-14T05:08:12.181Z,2.90
2022-08-14T05:11:19.425Z,2.95
2022-08-14T05:14:33.075Z,2.70
2022-08-14T05:17:11.872Z,3.10
2022-08-14T05:21:04.782Z,2.83
2022-08-14T05:23:03.473Z,2.70
2022-08-14T05:25:52.107Z,2.60
2022-08-14T05:28:37.754Z,2.40
2022-08-14T05:31:23.074Z,3.08
2022-08-14T05:34:16.216Z,2.80
2022-08-14T05:37:03.193Z,3.00
2022-08-14T05:39:48.491Z,2.85
2022-08-14T05:42:34.489Z,2.83
2022-08-14T05:45:20.055Z,2.92
2022-08-14T05:48:06.295Z,2.92
2022-08-14T05:53:42.454Z,2.47
2022-08-14T05:56:29.010Z,2.53
2022-08-14T05:59:14.312Z,2.60
2022-08-14T06:02:02.301Z,2.45
2022-08-14T06:04:50.888Z,3.00
2022-08-14T06:07:36.738Z,2.70
2022-08-14T06:10:22.013Z,2.55
2022-08-14T06:13:07.786Z,2.53
2022-08-14T06:15:54.338Z,2.78
2022-08-14T06:18:39.732Z,2.78
2022-08-14T06:21:24.647Z,3.13
2022-08-14T06:24:18.585Z,2.58
2022-08-14T06:27:06.095Z,2.63
2022-08-14T06:29:51.347Z,2.72
2022-08-14T06:32:39.424Z,2.70
2022-08-14T06:35:27.628Z,2.55
2022-08-14T06:38:19.604Z,2.50
2022-08-14T06:41:06.897Z,2.85
2022-08-14T06:43:56.295Z,2.92
2022-08-14T06:46:41.833Z,3.25
2022-08-14T06:49:45.081Z,3.28
2022-08-14T06:52:39.955Z,3.13
2022-08-14T06:55:36.910Z,3.00
2022-08-14T06:58:28.570Z,3.50
2022-08-14T07:01:33.229Z,3.78
2022-08-14T07:04:36.913Z,3.63
2022-08-14T07:07:22.548Z,4.28
2022-08-14T07:10:16.698Z,4.18
2022-08-14T07:13:04.627Z,4.30
2022-08-14T07:15:55.144Z,3.72
2022-08-14T07:18:41.617Z,3.97
2022-08-14T07:21:27.941Z,3.55
2022-08-14T07:24:26.495Z,3.50
2022-08-14T07:27:16.721Z,3.45
2022-08-14T07:30:04.261Z,3.17
2022-08-14T07:32:49.711Z,3.15
2022-08-14T07:35:42.848Z,2.92
2022-08-14T07:38:43.381Z,2.95
2022-08-14T07:41:37.792Z,3.25
2022-08-14T07:44:32.915Z,2.95
2022-08-14T07:47:21.243Z,2.80
2022-08-14T07:50:16.466Z,2.55
2022-08-14T07:53:03.825Z,2.55
2022-08-14T07:56:00.339Z,2.72
2022-08-14T07:58:54.610Z,2.97
2022-08-14T08:01:48.035Z,2.90
2022-08-14T08:04:39.698Z,2.80
2022-08-14T08:07:31.116Z,2.47
2022-08-14T08:10:57.267Z,2.70
2022-08-14T08:13:41.649Z,2.45
2022-08-14T08:16:36.563Z,2.33
2022-08-14T08:19:21.813Z,2.35
2022-08-14T08:22:07.236Z,2.30
2022-08-14T08:24:53.258Z,2.40
2022-08-14T08:27:44.527Z,2.45
2022-08-14T08:30:32.837Z,2.58
2022-08-14T08:33:20.445Z,2.55
2022-08-14T08:36:12.575Z,2.30
2022-08-14T08:39:16.796Z,2.35
2022-08-14T08:42:06.152Z,2.17
2022-08-14T08:44:55.895Z,2.10
2022-08-14T08:47:40.932Z,2.20
2022-08-14T08:53:17.411Z,2.40
2022-08-14T08:56:03.784Z,2.33
2022-08-14T08:58:50.887Z,2.80
2022-08-14T09:01:36.524Z,2.20
2022-08-14T09:04:21.944Z,2.30
2022-08-14T09:07:10.733Z,2.40
2022-08-14T09:09:59.548Z,2.10
2022-08-14T09:12:47.110Z,2.17
2022-08-14T09:15:42.509Z,2.08
2022-08-14T09:18:28.953Z,1.75
2022-08-14T09:21:16.440Z,2.10
2022-08-14T09:24:29.537Z,2.03
2022-08-14T09:27:07.237Z,2.03
2022-08-14T09:29:54.127Z,2.13
2022-08-14T09:33:08.941Z,2.00
2022-08-14T09:35:59.750Z,2.05
2022-08-14T09:38:54.490Z,1.98
2022-08-14T09:42:20.822Z,1.75
2022-08-14T09:45:15.745Z,1.73
2022-08-14T09:48:01.918Z,1.90
2022-08-14T09:50:55.504Z,1.95
2022-08-14T09:54:17.726Z,1.63
2022-08-14T09:56:57.298Z,1.98
2022-08-14T09:59:50.414Z,1.80
2022-08-14T10:02:35.688Z,1.77
2022-08-14T10:05:30.406Z,1.67
2022-08-14T10:08:26.200Z,1.73
2022-08-14T10:11:17.677Z,1.77
2022-08-14T10:14:29.518Z,1.80
2022-08-14T10:17:27.508Z,1.92
2022-08-14T10:20:40.548Z,2.00
2022-08-14T10:23:43.306Z,1.77
2022-08-14T10:26:28.680Z,1.70
2022-08-14T10:29:18.934Z,1.77
2022-08-14T10:32:18.116Z,1.73
2022-08-14T10:35:15.833Z,1.70
2022-08-14T10:38:01.556Z,1.60
2022-08-14T10:40:52.059Z,1.80
2022-08-14T10:43:45.816Z,1.60
2022-08-14T10:47:40.875Z,1.52
2022-08-14T10:50:04.350Z,1.92
2022-08-14T10:53:00.025Z,1.80
2022-08-14T10:55:48.136Z,2.00
2022-08-14T10:58:36.302Z,1.77
2022-08-14T11:01:30.530Z,1.50
2022-08-14T11:04:28.409Z,1.63
2022-08-14T11:07:21.086Z,1.60
2022-08-14T11:10:13.599Z,1.50
2022-08-14T11:12:59.271Z,1.75
2022-08-14T11:15:46.591Z,1.60
2022-08-14T11:18:35.966Z,1.42
2022-08-14T11:21:30.111Z,1.52
2022-08-14T11:24:54.383Z,1.30
2022-08-14T11:27:33.244Z,1.23
2022-08-14T11:30:51.263Z,1.20
2022-08-14T11:33:32.655Z,1.40
2022-08-14T11:36:18.874Z,1.30
2022-08-14T11:39:04.159Z,1.10
2022-08-14T11:41:57.996Z,1.20
2022-08-14T11:44:45.814Z,1.50
2022-08-14T11:47:43.901Z,1.00
2022-08-14T11:50:36.008Z,1.08
2022-08-14T11:53:30.261Z,1.10
2022-08-14T11:56:16.420Z,1.00
2022-08-14T11:59:02.784Z,1.00
2022-08-14T12:01:48.914Z,1.30
2022-08-14T12:04:35.378Z,1.00
2022-08-14T12:07:21.824Z,0.93
2022-08-14T12:10:26.992Z,1.00
2022-08-14T12:13:17.531Z,1.20
2022-08-14T12:16:11.166Z,1.10
2022-08-14T12:19:06.073Z,1.42
2022-08-14T12:21:54.342Z,1.17
2022-08-14T12:24:43.929Z,1.20
2022-08-14T12:27:54.027Z,1.10
2022-08-14T12:30:44.610Z,1.20
2022-08-14T12:33:33.179Z,1.20
2022-08-14T12:36:21.022Z,1.08
2022-08-14T12:39:26.785Z,1.17
2022-08-14T12:42:27.147Z,1.17
2022-08-14T12:45:17.632Z,1.40
2022-08-14T12:48:21.123Z,1.20
2022-08-14T12:51:25.220Z,1.20
2022-08-14T12:54:27.549Z,1.05
2022-08-14T12:57:19.350Z,1.10
2022-08-14T13:00:23.173Z,1.20
2022-08-14T13:03:09.570Z,1.13
2022-08-14T13:05:56.425Z,1.30
2022-08-14T13:08:53.290Z,1.30
2022-08-14T13:11:45.204Z,1.33
2022-08-14T13:14:33.630Z,1.25
2022-08-14T13:17:19.583Z,1.35
2022-08-14T13:20:10.126Z,1.17
2022-08-14T13:22:56.137Z,1.30
2022-08-14T13:25:55.534Z,1.38
2022-08-14T13:29:01.480Z,1.58
2022-08-14T13:31:51.762Z,0.90
2022-08-14T13:34:41.081Z,1.20
2022-08-14T13:37:26.595Z,1.10
2022-08-14T13:40:12.570Z,1.30
2022-08-14T13:42:58.234Z,1.20
2022-08-14T13:46:00.447Z,1.10
2022-08-14T13:48:47.362Z,1.30
2022-08-14T13:51:37.011Z,1.30
2022-08-14T13:54:24.804Z,1.35
2022-08-14T13:57:13.413Z,1.30
2022-08-14T14:00:01.950Z,1.23
2022-08-14T14:02:48.475Z,1.27
2022-08-14T14:05:52.772Z,1.38
2022-08-14T14:08:47.894Z,1.50
2022-08-14T14:11:33.699Z,1.50
2022-08-14T14:14:29.746Z,1.52
2022-08-14T14:17:28.971Z,1.60
2022-08-14T14:20:35.208Z,1.67
2022-08-14T14:23:22.472Z,1.60
2022-08-14T14:26:14.111Z,1.90
2022-08-14T14:29:00.493Z,1.38
2022-08-14T14:31:49.214Z,1.50
2022-08-14T14:34:37.671Z,1.40
2022-08-14T14:37:24.848Z,1.50
2022-08-14T14:40:53.700Z,1.23
2022-08-14T14:43:20.668Z,1.88
2022-08-14T14:46:09.385Z,1.65
2022-08-14T14:51:44.421Z,1.90
2022-08-14T14:54:37.804Z,1.80
2022-08-14T14:57:35.278Z,1.42
2022-08-14T15:00:21.128Z,1.67
2022-08-14T15:03:06.995Z,1.30
2022-08-14T15:05:54.846Z,1.60
2022-08-14T15:08:56.649Z,1.75
2022-08-14T15:11:46.908Z,1.80
2022-08-14T15:14:54.558Z,1.80
2022-08-14T15:17:41.746Z,2.20
2022-08-14T15:20:30.731Z,1.92
2022-08-14T15:23:16.387Z,1.83
2022-08-14T15:26:02.008Z,2.13
2022-08-14T15:28:48.343Z,2.00
2022-08-14T15:31:47.605Z,1.90
2022-08-14T15:34:43.729Z,2.10
2022-08-14T15:37:32.755Z,1.80
2022-08-14T15:40:22.473Z,2.05
2022-08-14T15:43:13.052Z,1.50
2022-08-14T15:45:58.020Z,2.05
2022-08-14T15:48:44.118Z,1.67
2022-08-14T15:51:31.429Z,2.03
2022-08-14T15:54:16.644Z,1.50
2022-08-14T15:57:08.328Z,1.40
2022-08-14T16:00:37.794Z,1.45
2022-08-14T16:03:18.084Z,1.13
2022-08-14T16:06:17.448Z,1.50
2022-08-14T16:09:07.793Z,1.40
2022-08-14T16:11:56.877Z,1.73
2022-08-14T16:14:45.415Z,1.50
2022-08-14T16:17:36.588Z,2.00
2022-08-14T16:20:42.348Z,1.67
2022-08-14T16:23:35.996Z,1.65
2022-08-14T16:26:30.005Z,1.67
2022-08-14T16:29:18.497Z,1.48
2022-08-14T16:32:33.417Z,1.85
2022-08-14T16:35:12.334Z,1.60
2022-08-14T16:37:58.298Z,1.92
2022-08-14T16:40:44.635Z,1.67
2022-08-14T16:43:29.472Z,2.10
2022-08-14T16:46:22.098Z,1.88
2022-08-14T16:49:12.366Z,1.92
2022-08-14T16:51:59.004Z,2.22
2022-08-14T16:54:46.938Z,3.83
2022-08-14T16:57:34.042Z,3.63
2022-08-14T17:00:43.085Z,4.30
2022-08-14T17:03:30.200Z,2.38
2022-08-14T17:06:36.664Z,1.80
2022-08-14T17:09:43.431Z,1.80
2022-08-14T17:12:44.855Z,2.53
2022-08-14T17:15:30.082Z,2.03
2022-08-14T17:18:15.212Z,2.10
2022-08-14T17:21:31.190Z,2.00
2022-08-14T17:24:56.788Z,1.70
2022-08-14T17:27:23.719Z,1.90
2022-08-14T17:30:32.436Z,1.88
2022-08-14T17:33:32.621Z,2.08
2022-08-14T17:36:24.471Z,1.85
2022-08-14T17:39:15.637Z,2.00
2022-08-14T17:42:03.803Z,2.50
2022-08-14T17:45:01.787Z,2.03
2022-08-14T17:47:47.356Z,1.80
2022-08-14T17:51:01.148Z,2.08
2022-08-14T17:53:53.849Z,2.17
2022-08-14T17:56:47.162Z,2.10
2022-08-14T17:59:37.417Z,1.55
2022-08-14T18:02:30.894Z,1.80
2022-08-14T18:05:17.747Z,2.00
2022-08-14T18:08:33.008Z,2.83
2022-08-14T18:11:18.505Z,2.70
2022-08-14T18:14:04.784Z,2.60
2022-08-14T18:16:55.123Z,4.38
2022-08-14T18:19:41.473Z,4.03
2022-08-14T18:22:32.898Z,2.10
2022-08-14T18:25:23.439Z,2.65
2022-08-14T18:28:16.058Z,2.28
2022-08-14T18:31:21.573Z,2.20
2022-08-14T18:34:30.746Z,2.20
2022-08-14T18:37:21.113Z,2.08
2022-08-14T18:43:04.014Z,2.10
2022-08-14T18:46:00.974Z,2.10
2022-08-14T18:48:51.564Z,2.20
2022-08-14T18:51:45.108Z,2.55
2022-08-14T18:54:37.321Z,2.10
2022-08-14T18:57:22.481Z,2.00
2022-08-14T19:00:32.996Z,2.03
2022-08-14T19:03:18.644Z,1.83
2022-08-14T19:06:09.500Z,2.47
2022-08-14T19:08:55.332Z,2.25
2022-08-14T19:11:42.044Z,1.98
2022-08-14T19:14:48.605Z,2.20
2022-08-14T19:18:13.985Z,2.50
2022-08-14T19:20:52.586Z,2.20
2022-08-14T19:23:43.266Z,2.75
2022-08-14T19:26:52.157Z,2.70
2022-08-14T19:29:40.109Z,2.40
2022-08-14T19:32:32.456Z,2.20
2022-08-14T19:35:55.468Z,2.90
2022-08-14T19:38:59.697Z,2.50
2022-08-14T19:41:56.864Z,2.45
2022-08-14T19:44:44.318Z,3.00
2022-08-14T19:47:41.372Z,2.92
2022-08-14T19:50:40.744Z,2.38
2022-08-14T19:53:27.044Z,2.75
2022-08-14T19:56:12.228Z,2.40
2022-08-14T19:59:19.120Z,2.25
2022-08-14T20:02:05.956Z,2.00
2022-08-14T20:04:58.130Z,2.30
2022-08-14T20:07:59.308Z,2.00
2022-08-14T20:11:07.736Z,2.17
2022-08-14T20:14:01.075Z,2.05
2022-08-14T20:16:49.338Z,2.08
2022-08-14T20:19:37.740Z,2.15
2022-08-14T20:22:38.347Z,1.83
2022-08-14T20:25:23.614Z,2.20
2022-08-14T20:28:29.577Z,1.92
2022-08-14T20:31:18.648Z,2.00
2022-08-14T20:34:18.850Z,1.63
2022-08-14T20:37:16.415Z,2.05
2022-08-14T20:40:23.504Z,1.73
2022-08-14T20:43:55.351Z,1.67
2022-08-14T20:46:42.280Z,1.60
2022-08-14T20:49:30.244Z,1.65
2022-08-14T20:52:19.047Z,1.70
2022-08-14T20:55:25.534Z,1.85
2022-08-14T20:58:44.854Z,1.80
2022-08-14T21:01:33.794Z,1.75
2022-08-14T21:04:32.669Z,2.15
2022-08-14T21:07:24.775Z,1.90
2022-08-14T21:10:33.758Z,1.90
2022-08-14T21:14:08.889Z,2.00
2022-08-14T21:16:35.044Z,2.20
2022-08-14T21:19:27.451Z,2.00
2022-08-14T21:22:12.859Z,1.83
2022-08-14T21:25:02.384Z,1.92
2022-08-14T21:27:56.792Z,1.92
2022-08-14T21:30:51.889Z,1.83
2022-08-14T21:33:39.910Z,1.65
2022-08-14T21:36:31.024Z,2.10
2022-08-14T21:39:19.693Z,1.63
2022-08-14T21:42:06.180Z,2.13
2022-08-14T21:44:52.642Z,2.25
2022-08-14T21:47:38.485Z,1.63
2022-08-14T21:50:56.667Z,2.00
2022-08-14T21:53:34.166Z,1.90
2022-08-14T21:56:19.506Z,2.20
2022-08-14T21:59:11.690Z,2.03
2022-08-14T22:02:05.096Z,2.05
2022-08-14T22:04:52.234Z,1.95
2022-08-14T22:07:42.329Z,1.80
2022-08-14T22:10:29.028Z,2.10
2022-08-14T22:13:17.521Z,2.03
2022-08-14T22:16:02.839Z,2.30
2022-08-14T22:18:48.093Z,1.83
2022-08-14T22:21:38.348Z,2.33
2022-08-14T22:24:38.553Z,2.20
2022-08-14T22:27:55.741Z,2.17
2022-08-14T22:30:42.922Z,2.35
2022-08-14T22:33:30.916Z,2.20
2022-08-14T22:36:42.361Z,2.00
2022-08-14T22:40:17.523Z,1.98
2022-08-14T22:42:40.932Z,1.80
2022-08-14T22:45:55.465Z,2.08
2022-08-14T22:48:41.697Z,2.40
2022-08-14T22:51:27.713Z,2.47
2022-08-14T22:54:52.075Z,2.30
2022-08-14T22:57:19.097Z,2.30
2022-08-14T23:00:16.372Z,2.22
2022-08-14T23:03:04.087Z,2.33
2022-08-14T23:05:51.634Z,2.60
2022-08-14T23:08:58.656Z,2.30
2022-08-14T23:11:46.862Z,2.30
2022-08-14T23:14:32.121Z,2.40
2022-08-14T23:17:17.579Z,2.30
2022-08-14T23:20:04.867Z,2.60
2022-08-14T23:22:53.241Z,2.30
2022-08-14T23:25:58.328Z,2.60
2022-08-14T23:28:56.888Z,2.53
2022-08-14T23:31:44.182Z,2.28
2022-08-14T23:34:30.006Z,2.40
2022-08-14T23:37:15.531Z,2.28
2022-08-14T23:40:01.824Z,2.30
2022-08-14T23:43:04.705Z,2.53
2022-08-14T23:45:54.956Z,2.67
2022-08-14T23:48:44.476Z,2.50
2022-08-14T23:51:36.459Z,2.37
2022-08-14T23:54:48.563Z,2.25
2022-08-14T23:57:30.736Z,2.30
